sensor_id;sensor_type;location;lat;lon;timestamp;pressure;altitude;pressure_sealevel;temperature;humidity
57644;BME280;43474;46.510;6.686;2023-01-28T00:02:22;96513.50;;;-1.62;100.00
57644;BME280;43474;46.510;6.686;2023-01-28T00:04:48;96491.41;;;-1.66;100.00
57644;BME280;43474;46.510;6.686;2023-01-28T00:07:14;96500.34;;;-1.69;100.00
57644;BME280;43474;46.510;6.686;2023-01-28T00:09:39;96505.88;;;-1.64;100.00
57644;BME280;43474;46.510;6.686;2023-01-28T00:12:05;96496.91;;;-1.69;100.00
57644;BME280;43474;46.510;6.686;2023-01-28T00:14:30;96489.09;;;-1.86;100.00
57644;BME280;43474;46.510;6.686;2023-01-28T00:16:56;96491.03;;;-1.79;100.00
57644;BME280;43474;46.510;6.686;2023-01-28T00:19:22;96500.50;;;-1.70;100.00
57644;BME280;43474;46.510;6.686;2023-01-28T00:21:48;96504.88;;;-1.79;100.00
57644;BME280;43474;46.510;6.686;2023-01-28T00:24:13;96500.50;;;-1.78;100.00
57644;BME280;43474;46.510;6.686;2023-01-28T00:26:40;96492.53;;;-1.77;100.00
57644;BME280;43474;46.510;6.686;2023-01-28T00:29:06;96507.31;;;-1.69;100.00
57644;BME280;43474;46.510;6.686;2023-01-28T00:31:31;96500.03;;;-1.66;100.00
57644;BME280;43474;46.510;6.686;2023-01-28T00:33:58;96487.72;;;-1.64;100.00
57644;BME280;43474;46.510;6.686;2023-01-28T00:36:25;96505.06;;;-1.64;100.00
57644;BME280;43474;46.510;6.686;2023-01-28T00:38:53;96504.75;;;-1.61;100.00
57644;BME280;43474;46.510;6.686;2023-01-28T00:41:20;96498.22;;;-1.65;100.00
57644;BME280;43474;46.510;6.686;2023-01-28T00:43:47;96501.97;;;-1.68;100.00
57644;BME280;43474;46.510;6.686;2023-01-28T00:46:13;96492.09;;;-1.56;100.00
57644;BME280;43474;46.510;6.686;2023-01-28T00:48:40;96510.78;;;-1.44;100.00
57644;BME280;43474;46.510;6.686;2023-01-28T00:51:07;96485.16;;;-1.39;100.00
57644;BME280;43474;46.510;6.686;2023-01-28T00:53:34;96489.84;;;-1.43;100.00
57644;BME280;43474;46.510;6.686;2023-01-28T00:56:01;96488.22;;;-1.52;100.00
57644;BME280;43474;46.510;6.686;2023-01-28T00:58:27;96486.13;;;-1.48;100.00
57644;BME280;43474;46.510;6.686;2023-01-28T01:00:52;96476.19;;;-1.45;100.00
57644;BME280;43474;46.510;6.686;2023-01-28T01:03:19;96478.97;;;-1.46;100.00
57644;BME280;43474;46.510;6.686;2023-01-28T01:05:45;96490.66;;;-1.42;100.00
57644;BME280;43474;46.510;6.686;2023-01-28T01:08:11;96477.66;;;-1.59;100.00
57644;BME280;43474;46.510;6.686;2023-01-28T01:10:37;96463.66;;;-1.66;100.00
57644;BME280;43474;46.510;6.686;2023-01-28T01:13:04;96468.69;;;-1.56;100.00
57644;BME280;43474;46.510;6.686;2023-01-28T01:15:30;96477.81;;;-1.52;100.00
57644;BME280;43474;46.510;6.686;2023-01-28T01:17:56;96470.66;;;-1.50;100.00
57644;BME280;43474;46.510;6.686;2023-01-28T01:20:26;96472.81;;;-1.37;100.00
57644;BME280;43474;46.510;6.686;2023-01-28T01:22:52;96471.47;;;-1.49;100.00
57644;BME280;43474;46.510;6.686;2023-01-28T01:25:18;96478.78;;;-1.45;100.00
57644;BME280;43474;46.510;6.686;2023-01-28T01:27:46;96470.66;;;-1.50;100.00
57644;BME280;43474;46.510;6.686;2023-01-28T01:30:13;96478.97;;;-1.46;100.00
57644;BME280;43474;46.510;6.686;2023-01-28T01:32:39;96479.78;;;-1.38;100.00
57644;BME280;43474;46.510;6.686;2023-01-28T01:35:05;96479.78;;;-1.54;100.00
57644;BME280;43474;46.510;6.686;2023-01-28T01:37:33;96498.28;;;-1.49;100.00
57644;BME280;43474;46.510;6.686;2023-01-28T01:39:59;96493.91;;;-1.48;100.00
57644;BME280;43474;46.510;6.686;2023-01-28T01:42:27;96489.03;;;-1.43;100.00
57644;BME280;43474;46.510;6.686;2023-01-28T01:47:59;96504.16;;;-1.39;100.00
57644;BME280;43474;46.510;6.686;2023-01-28T01:50:28;96503.34;;;-1.31;100.00
57644;BME280;43474;46.510;6.686;2023-01-28T01:53:00;96485.31;;;-1.49;100.00
57644;BME280;43474;46.510;6.686;2023-01-28T01:55:30;96497.19;;;-1.38;100.00
57644;BME280;43474;46.510;6.686;2023-01-28T01:57:59;96498.78;;;-1.45;100.00
57644;BME280;43474;46.510;6.686;2023-01-28T02:00:26;96470.19;;;-1.45;100.00
57644;BME280;43474;46.510;6.686;2023-01-28T02:02:52;96501.69;;;-1.40;100.00
57644;BME280;43474;46.510;6.686;2023-01-28T02:05:20;96492.44;;;-1.43;100.00
57644;BME280;43474;46.510;6.686;2023-01-28T02:07:49;96497.16;;;-1.46;100.00
57644;BME280;43474;46.510;6.686;2023-01-28T02:10:15;96490.50;;;-1.41;100.00
57644;BME280;43474;46.510;6.686;2023-01-28T02:12:49;96484.50;;;-1.41;100.00
57644;BME280;43474;46.510;6.686;2023-01-28T02:15:19;96494.72;;;-1.40;100.00
57644;BME280;43474;46.510;6.686;2023-01-28T02:17:47;96482.38;;;-1.54;100.00
57644;BME280;43474;46.510;6.686;2023-01-28T02:20:24;96466.88;;;-1.72;100.00
57644;BME280;43474;46.510;6.686;2023-01-28T02:31:10;96482.03;;;-1.59;100.00
57644;BME280;43474;46.510;6.686;2023-01-28T02:33:43;96472.13;;;-1.64;100.00
57644;BME280;43474;46.510;6.686;2023-01-28T02:36:28;96475.81;;;-1.66;100.00
57644;BME280;43474;46.510;6.686;2023-01-28T02:38:58;96471.09;;;-1.71;100.00
57644;BME280;43474;46.510;6.686;2023-01-28T02:41:32;96469.00;;;-1.67;100.00
57644;BME280;43474;46.510;6.686;2023-01-28T02:44:01;96464.59;;;-1.75;100.00
57644;BME280;43474;46.510;6.686;2023-01-28T02:49:27;96480.53;;;-1.70;100.00
57644;BME280;43474;46.510;6.686;2023-01-28T02:54:52;96489.97;;;-1.69;100.00
57644;BME280;43474;46.510;6.686;2023-01-28T02:57:33;96475.75;;;-1.91;100.00
57644;BME280;43474;46.510;6.686;2023-01-28T03:00:25;96492.16;;;-1.90;100.00
57644;BME280;43474;46.510;6.686;2023-01-28T03:05:38;96484.44;;;-1.74;100.00
57644;BME280;43474;46.510;6.686;2023-01-28T03:08:08;96451.75;;;-1.93;100.00
57644;BME280;43474;46.510;6.686;2023-01-28T03:10:54;96479.50;;;-1.85;100.00
57644;BME280;43474;46.510;6.686;2023-01-28T03:13:41;96480.66;;;-1.88;100.00
57644;BME280;43474;46.510;6.686;2023-01-28T03:16:25;96478.06;;;-1.88;100.00
57644;BME280;43474;46.510;6.686;2023-01-28T03:19:12;96471.69;;;-1.93;100.00
57644;BME280;43474;46.510;6.686;2023-01-28T03:21:57;96468.13;;;-1.92;100.00
57644;BME280;43474;46.510;6.686;2023-01-28T03:24:47;96474.78;;;-1.90;100.00
57644;BME280;43474;46.510;6.686;2023-01-28T03:27:48;96455.78;;;-1.90;100.00
57644;BME280;43474;46.510;6.686;2023-01-28T03:33:49;96471.38;;;-1.98;100.00
57644;BME280;43474;46.510;6.686;2023-01-28T03:36:34;96467.97;;;-1.91;100.00
57644;BME280;43474;46.510;6.686;2023-01-28T03:39:24;96476.38;;;-1.97;100.00
57644;BME280;43474;46.510;6.686;2023-01-28T03:44:22;96470.22;;;-1.96;100.00
57644;BME280;43474;46.510;6.686;2023-01-28T03:47:07;96470.72;;;-1.84;100.00
57644;BME280;43474;46.510;6.686;2023-01-28T03:49:33;96466.66;;;-1.95;100.00
57644;BME280;43474;46.510;6.686;2023-01-28T03:51:59;96480.44;;;-1.94;100.00
57644;BME280;43474;46.510;6.686;2023-01-28T03:54:24;96465.50;;;-2.00;100.00
57644;BME280;43474;46.510;6.686;2023-01-28T03:56:50;96485.63;;;-2.02;100.00
57644;BME280;43474;46.510;6.686;2023-01-28T03:59:15;96474.09;;;-2.08;100.00
57644;BME280;43474;46.510;6.686;2023-01-28T04:01:41;96463.81;;;-2.18;100.00
57644;BME280;43474;46.510;6.686;2023-01-28T04:04:07;96467.16;;;-2.33;100.00
57644;BME280;43474;46.510;6.686;2023-01-28T04:06:32;96472.88;;;-2.22;100.00
57644;BME280;43474;46.510;6.686;2023-01-28T04:08:58;96461.63;;;-2.30;100.00
57644;BME280;43474;46.510;6.686;2023-01-28T04:11:25;96475.31;;;-2.20;100.00
57644;BME280;43474;46.510;6.686;2023-01-28T04:13:51;96498.38;;;-2.17;100.00
57644;BME280;43474;46.510;6.686;2023-01-28T04:16:18;96477.72;;;-2.27;100.00
57644;BME280;43474;46.510;6.686;2023-01-28T04:18:44;96473.06;;;-2.15;100.00
57644;BME280;43474;46.510;6.686;2023-01-28T04:21:11;96497.78;;;-2.03;100.00
57644;BME280;43474;46.510;6.686;2023-01-28T04:23:37;96499.25;;;-2.00;100.00
57644;BME280;43474;46.510;6.686;2023-01-28T04:26:03;96497.13;;;-2.05;100.00
57644;BME280;43474;46.510;6.686;2023-01-28T04:28:28;96489.44;;;-2.15;100.00
57644;BME280;43474;46.510;6.686;2023-01-28T04:30:54;96473.56;;;-2.12;100.00
57644;BME280;43474;46.510;6.686;2023-01-28T04:33:19;96477.28;;;-2.14;100.00
57644;BME280;43474;46.510;6.686;2023-01-28T04:35:45;96492.44;;;-2.01;100.00
57644;BME280;43474;46.510;6.686;2023-01-28T04:38:11;96487.75;;;-1.90;100.00
57644;BME280;43474;46.510;6.686;2023-01-28T04:40:36;96490.19;;;-1.96;100.00
57644;BME280;43474;46.510;6.686;2023-01-28T04:43:02;96485.97;;;-1.97;100.00
57644;BME280;43474;46.510;6.686;2023-01-28T04:45:27;96501.72;;;-1.91;100.00
57644;BME280;43474;46.510;6.686;2023-01-28T04:47:53;96490.47;;;-2.08;100.00
57644;BME280;43474;46.510;6.686;2023-01-28T04:50:19;96506.91;;;-1.99;100.00
57644;BME280;43474;46.510;6.686;2023-01-28T04:52:44;96498.56;;;-2.11;100.00
57644;BME280;43474;46.510;6.686;2023-01-28T04:55:10;96515.16;;;-2.03;100.00
57644;BME280;43474;46.510;6.686;2023-01-28T04:57:36;96521.22;;;-1.87;100.00
57644;BME280;43474;46.510;6.686;2023-01-28T05:00:03;96501.38;;;-1.96;100.00
57644;BME280;43474;46.510;6.686;2023-01-28T05:02:30;96505.59;;;-2.03;100.00
57644;BME280;43474;46.510;6.686;2023-01-28T05:04:55;96498.94;;;-1.97;100.00
57644;BME280;43474;46.510;6.686;2023-01-28T05:07:21;96503.78;;;-2.02;100.00
57644;BME280;43474;46.510;6.686;2023-01-28T05:09:47;96510.25;;;-2.06;100.00
57644;BME280;43474;46.510;6.686;2023-01-28T05:12:12;96500.84;;;-2.08;100.00
57644;BME280;43474;46.510;6.686;2023-01-28T05:14:38;96515.81;;;-2.01;100.00
57644;BME280;43474;46.510;6.686;2023-01-28T05:17:03;96513.03;;;-2.08;100.00
57644;BME280;43474;46.510;6.686;2023-01-28T05:19:29;96513.72;;;-1.98;100.00
57644;BME280;43474;46.510;6.686;2023-01-28T05:21:54;96501.19;;;-2.02;100.00
57644;BME280;43474;46.510;6.686;2023-01-28T05:24:20;96505.88;;;-2.06;100.00
57644;BME280;43474;46.510;6.686;2023-01-28T05:26:46;96529.44;;;-1.99;100.00
57644;BME280;43474;46.510;6.686;2023-01-28T05:29:12;96507.03;;;-2.00;100.00
57644;BME280;43474;46.510;6.686;2023-01-28T05:31:37;96515.34;;;-1.97;100.00
57644;BME280;43474;46.510;6.686;2023-01-28T05:34:03;96509.16;;;-1.96;100.00
57644;BME280;43474;46.510;6.686;2023-01-28T05:36:28;96522.28;;;-2.05;100.00
57644;BME280;43474;46.510;6.686;2023-01-28T05:38:54;96512.41;;;-2.02;100.00
57644;BME280;43474;46.510;6.686;2023-01-28T05:41:19;96505.00;;;-1.89;100.00
57644;BME280;43474;46.510;6.686;2023-01-28T05:43:45;96522.34;;;-1.89;100.00
57644;BME280;43474;46.510;6.686;2023-01-28T05:46:10;96535.06;;;-1.78;100.00
57644;BME280;43474;46.510;6.686;2023-01-28T05:48:36;96527.41;;;-1.79;100.00
57644;BME280;43474;46.510;6.686;2023-01-28T05:51:02;96518.13;;;-1.90;100.00
57644;BME280;43474;46.510;6.686;2023-01-28T05:53:30;96508.00;;;-2.01;100.00
57644;BME280;43474;46.510;6.686;2023-01-28T05:55:55;96524.59;;;-1.94;100.00
57644;BME280;43474;46.510;6.686;2023-01-28T05:58:21;96527.19;;;-1.94;100.00
57644;BME280;43474;46.510;6.686;2023-01-28T06:00:47;96538.53;;;-1.95;100.00
57644;BME280;43474;46.510;6.686;2023-01-28T06:03:13;96532.66;;;-2.05;100.00
57644;BME280;43474;46.510;6.686;2023-01-28T06:05:38;96543.47;;;-1.84;100.00
57644;BME280;43474;46.510;6.686;2023-01-28T06:08:04;96547.72;;;-1.83;100.00
57644;BME280;43474;46.510;6.686;2023-01-28T06:10:30;96542.75;;;-1.94;100.00
57644;BME280;43474;46.510;6.686;2023-01-28T06:12:55;96546.16;;;-2.02;100.00
57644;BME280;43474;46.510;6.686;2023-01-28T06:15:21;96550.94;;;-2.15;100.00
57644;BME280;43474;46.510;6.686;2023-01-28T06:17:46;96541.94;;;-2.29;100.00
57644;BME280;43474;46.510;6.686;2023-01-28T06:20:12;96545.75;;;-2.15;100.00
57644;BME280;43474;46.510;6.686;2023-01-28T06:22:38;96536.34;;;-2.42;100.00
57644;BME280;43474;46.510;6.686;2023-01-28T06:25:03;96554.72;;;-2.36;100.00
57644;BME280;43474;46.510;6.686;2023-01-28T06:27:29;96564.69;;;-2.23;100.00
57644;BME280;43474;46.510;6.686;2023-01-28T06:29:55;96559.69;;;-2.16;100.00
57644;BME280;43474;46.510;6.686;2023-01-28T06:32:21;96574.38;;;-2.07;100.00
57644;BME280;43474;46.510;6.686;2023-01-28T06:34:46;96577.06;;;-2.17;100.00
57644;BME280;43474;46.510;6.686;2023-01-28T06:37:13;96573.06;;;-2.29;100.00
57644;BME280;43474;46.510;6.686;2023-01-28T06:39:38;96552.31;;;-2.29;100.00
57644;BME280;43474;46.510;6.686;2023-01-28T06:42:04;96567.50;;;-2.16;100.00
57644;BME280;43474;46.510;6.686;2023-01-28T06:44:29;96574.63;;;-2.18;100.00
57644;BME280;43474;46.510;6.686;2023-01-28T06:46:55;96567.94;;;-2.21;100.00
57644;BME280;43474;46.510;6.686;2023-01-28T06:49:21;96576.53;;;-2.20;100.00
57644;BME280;43474;46.510;6.686;2023-01-28T06:51:47;96560.44;;;-2.24;100.00
57644;BME280;43474;46.510;6.686;2023-01-28T06:54:12;96580.41;;;-2.24;100.00
57644;BME280;43474;46.510;6.686;2023-01-28T06:56:38;96560.97;;;-2.20;100.00
57644;BME280;43474;46.510;6.686;2023-01-28T06:59:03;96562.59;;;-2.19;100.00
57644;BME280;43474;46.510;6.686;2023-01-28T07:01:30;96580.31;;;-2.15;100.00
57644;BME280;43474;46.510;6.686;2023-01-28T07:03:55;96582.41;;;-2.18;100.00
57644;BME280;43474;46.510;6.686;2023-01-28T07:06:21;96576.44;;;-2.37;100.00
57644;BME280;43474;46.510;6.686;2023-01-28T07:08:47;96587.63;;;-2.36;100.00
57644;BME280;43474;46.510;6.686;2023-01-28T07:11:14;96573.06;;;-2.55;100.00
57644;BME280;43474;46.510;6.686;2023-01-28T07:13:39;96589.50;;;-2.28;100.00
57644;BME280;43474;46.510;6.686;2023-01-28T07:16:06;96588.00;;;-2.05;100.00
57644;BME280;43474;46.510;6.686;2023-01-28T07:18:32;96569.03;;;-2.31;100.00
57644;BME280;43474;46.510;6.686;2023-01-28T07:20:58;96587.97;;;-2.13;100.00
57644;BME280;43474;46.510;6.686;2023-01-28T07:23:23;96584.06;;;-2.09;100.00
57644;BME280;43474;46.510;6.686;2023-01-28T07:25:49;96589.13;;;-2.08;100.00
57644;BME280;43474;46.510;6.686;2023-01-28T07:28:15;96572.03;;;-2.18;100.00
57644;BME280;43474;46.510;6.686;2023-01-28T07:30:47;96585.97;;;-1.93;100.00
57644;BME280;43474;46.510;6.686;2023-01-28T07:33:13;96589.72;;;-1.88;100.00
57644;BME280;43474;46.510;6.686;2023-01-28T07:35:38;96587.25;;;-1.89;100.00
57644;BME280;43474;46.510;6.686;2023-01-28T07:38:04;96600.28;;;-1.81;100.00
57644;BME280;43474;46.510;6.686;2023-01-28T07:40:29;96607.22;;;-1.90;100.00
57644;BME280;43474;46.510;6.686;2023-01-28T07:42:55;96590.06;;;-1.83;100.00
57644;BME280;43474;46.510;6.686;2023-01-28T07:45:22;96596.00;;;-1.98;100.00
57644;BME280;43474;46.510;6.686;2023-01-28T07:47:59;96606.47;;;-1.82;100.00
57644;BME280;43474;46.510;6.686;2023-01-28T07:50:26;96620.22;;;-1.90;100.00
57644;BME280;43474;46.510;6.686;2023-01-28T07:52:54;96611.78;;;-1.92;100.00
57644;BME280;43474;46.510;6.686;2023-01-28T07:55:20;96596.59;;;-2.04;100.00
57644;BME280;43474;46.510;6.686;2023-01-28T07:57:54;96603.88;;;-1.82;100.00
57644;BME280;43474;46.510;6.686;2023-01-28T08:00:21;96604.28;;;-1.69;100.00
57644;BME280;43474;46.510;6.686;2023-01-28T08:02:47;96618.75;;;-1.16;100.00
57644;BME280;43474;46.510;6.686;2023-01-28T08:05:15;96623.31;;;-1.18;100.00
57644;BME280;43474;46.510;6.686;2023-01-28T08:07:41;96634.72;;;-1.02;100.00
57644;BME280;43474;46.510;6.686;2023-01-28T08:10:07;96613.63;;;-0.67;100.00
57644;BME280;43474;46.510;6.686;2023-01-28T08:12:33;96641.94;;;-0.56;100.00
57644;BME280;43474;46.510;6.686;2023-01-28T08:14:58;96630.22;;;-0.11;100.00
57644;BME280;43474;46.510;6.686;2023-01-28T08:17:24;96652.03;;;-0.53;100.00
57644;BME280;43474;46.510;6.686;2023-01-28T08:19:49;96617.88;;;-0.66;100.00
57644;BME280;43474;46.510;6.686;2023-01-28T08:22:15;96643.44;;;-0.37;100.00
57644;BME280;43474;46.510;6.686;2023-01-28T08:24:40;96629.91;;;-0.40;100.00
57644;BME280;43474;46.510;6.686;2023-01-28T08:27:06;96638.22;;;-0.53;100.00
57644;BME280;43474;46.510;6.686;2023-01-28T08:29:31;96647.63;;;-0.68;100.00
57644;BME280;43474;46.510;6.686;2023-01-28T08:31:57;96621.94;;;-0.63;100.00
57644;BME280;43474;46.510;6.686;2023-01-28T08:34:23;96640.50;;;-0.26;100.00
57644;BME280;43474;46.510;6.686;2023-01-28T08:36:48;96646.50;;;0.16;100.00
57644;BME280;43474;46.510;6.686;2023-01-28T08:39:14;96669.53;;;0.51;100.00
57644;BME280;43474;46.510;6.686;2023-01-28T08:41:39;96645.81;;;0.22;100.00
57644;BME280;43474;46.510;6.686;2023-01-28T08:44:05;96662.91;;;0.24;100.00
57644;BME280;43474;46.510;6.686;2023-01-28T08:46:30;96655.44;;;0.13;100.00
57644;BME280;43474;46.510;6.686;2023-01-28T08:48:56;96655.09;;;0.24;100.00
57644;BME280;43474;46.510;6.686;2023-01-28T08:51:22;96646.13;;;0.27;100.00
57644;BME280;43474;46.510;6.686;2023-01-28T08:53:47;96650.13;;;0.62;100.00
57644;BME280;43474;46.510;6.686;2023-01-28T08:56:13;96650.75;;;0.64;100.00
57644;BME280;43474;46.510;6.686;2023-01-28T08:58:39;96670.56;;;0.90;100.00
57644;BME280;43474;46.510;6.686;2023-01-28T09:01:05;96665.44;;;0.65;100.00
57644;BME280;43474;46.510;6.686;2023-01-28T09:03:32;96667.28;;;0.88;100.00
57644;BME280;43474;46.510;6.686;2023-01-28T09:06:01;96682.16;;;1.49;100.00
57644;BME280;43474;46.510;6.686;2023-01-28T09:08:27;96649.25;;;1.40;100.00
57644;BME280;43474;46.510;6.686;2023-01-28T09:10:56;96653.88;;;0.99;100.00
57644;BME280;43474;46.510;6.686;2023-01-28T09:13:23;96671.47;;;1.05;100.00
57644;BME280;43474;46.510;6.686;2023-01-28T09:15:49;96671.81;;;1.02;100.00
57644;BME280;43474;46.510;6.686;2023-01-28T09:18:16;96675.06;;;1.58;100.00
57644;BME280;43474;46.510;6.686;2023-01-28T09:20:41;96671.56;;;1.89;100.00
57644;BME280;43474;46.510;6.686;2023-01-28T09:23:08;96686.22;;;1.75;100.00
57644;BME280;43474;46.510;6.686;2023-01-28T09:25:33;96676.97;;;1.87;100.00
57644;BME280;43474;46.510;6.686;2023-01-28T09:28:01;96685.28;;;1.45;100.00
57644;BME280;43474;46.510;6.686;2023-01-28T09:30:27;96703.47;;;1.61;100.00
57644;BME280;43474;46.510;6.686;2023-01-28T09:32:53;96705.97;;;2.00;100.00
57644;BME280;43474;46.510;6.686;2023-01-28T09:35:20;96703.47;;;2.59;100.00
57644;BME280;43474;46.510;6.686;2023-01-28T09:37:46;96710.59;;;3.10;100.00
57644;BME280;43474;46.510;6.686;2023-01-28T09:45:39;96706.69;;;3.57;100.00
57644;BME280;43474;46.510;6.686;2023-01-28T09:48:13;96696.22;;;3.57;98.59
57644;BME280;43474;46.510;6.686;2023-01-28T09:50:47;96721.25;;;3.59;96.32
57644;BME280;43474;46.510;6.686;2023-01-28T09:53:29;96717.16;;;3.35;97.72
57644;BME280;43474;46.510;6.686;2023-01-28T09:56:08;96732.53;;;3.60;96.64
57644;BME280;43474;46.510;6.686;2023-01-28T09:58:36;96715.38;;;3.57;95.83
57644;BME280;43474;46.510;6.686;2023-01-28T10:06:23;96733.97;;;3.99;94.36
57644;BME280;43474;46.510;6.686;2023-01-28T10:14:27;96741.88;;;1.98;100.00
57644;BME280;43474;46.510;6.686;2023-01-28T10:17:07;96738.75;;;1.57;100.00
57644;BME280;43474;46.510;6.686;2023-01-28T10:20:01;96713.78;;;1.54;100.00
57644;BME280;43474;46.510;6.686;2023-01-28T10:22:32;96715.28;;;1.49;100.00
57644;BME280;43474;46.510;6.686;2023-01-28T10:25:04;96746.38;;;1.36;100.00
57644;BME280;43474;46.510;6.686;2023-01-28T10:27:32;96732.59;;;1.11;100.00
57644;BME280;43474;46.510;6.686;2023-01-28T10:29:59;96714.06;;;0.89;100.00
57644;BME280;43474;46.510;6.686;2023-01-28T10:32:37;96729.84;;;1.04;100.00
57644;BME280;43474;46.510;6.686;2023-01-28T10:35:08;96725.97;;;0.92;100.00
57644;BME280;43474;46.510;6.686;2023-01-28T10:37:36;96712.94;;;0.84;100.00
57644;BME280;43474;46.510;6.686;2023-01-28T10:40:04;96714.56;;;0.93;100.00
57644;BME280;43474;46.510;6.686;2023-01-28T10:42:34;96736.31;;;1.24;100.00
57644;BME280;43474;46.510;6.686;2023-01-28T10:47:49;96733.94;;;1.38;100.00
57644;BME280;43474;46.510;6.686;2023-01-28T10:50:22;96740.06;;;1.53;100.00
57644;BME280;43474;46.510;6.686;2023-01-28T10:52:56;96740.88;;;1.53;100.00
57644;BME280;43474;46.510;6.686;2023-01-28T10:55:23;96727.88;;;1.45;100.00
57644;BME280;43474;46.510;6.686;2023-01-28T10:57:52;96734.94;;;1.37;100.00
57644;BME280;43474;46.510;6.686;2023-01-28T11:02:47;96744.94;;;1.56;100.00
57644;BME280;43474;46.510;6.686;2023-01-28T11:05:18;96730.97;;;1.72;100.00
57644;BME280;43474;46.510;6.686;2023-01-28T11:07:47;96729.41;;;1.86;100.00
57644;BME280;43474;46.510;6.686;2023-01-28T11:10:35;96726.88;;;2.00;100.00
57644;BME280;43474;46.510;6.686;2023-01-28T11:13:04;96739.69;;;2.10;100.00
57644;BME280;43474;46.510;6.686;2023-01-28T11:15:31;96724.06;;;2.02;100.00
57644;BME280;43474;46.510;6.686;2023-01-28T11:18:01;96743.44;;;2.30;100.00
57644;BME280;43474;46.510;6.686;2023-01-28T11:20:33;96753.91;;;2.30;100.00
57644;BME280;43474;46.510;6.686;2023-01-28T11:22:59;96724.25;;;1.77;100.00
57644;BME280;43474;46.510;6.686;2023-01-28T11:25:36;96744.16;;;2.01;100.00
57644;BME280;43474;46.510;6.686;2023-01-28T11:28:07;96740.34;;;1.89;100.00
57644;BME280;43474;46.510;6.686;2023-01-28T11:30:40;96749.81;;;1.90;100.00
57644;BME280;43474;46.510;6.686;2023-01-28T11:33:21;96749.56;;;2.00;100.00
57644;BME280;43474;46.510;6.686;2023-01-28T11:35:56;96744.03;;;1.72;100.00
57644;BME280;43474;46.510;6.686;2023-01-28T11:38:24;96739.44;;;1.74;100.00
57644;BME280;43474;46.510;6.686;2023-01-28T11:40:51;96733.94;;;1.92;100.00
57644;BME280;43474;46.510;6.686;2023-01-28T11:43:19;96729.47;;;2.00;100.00
57644;BME280;43474;46.510;6.686;2023-01-28T11:48:52;96735.34;;;1.79;100.00
57644;BME280;43474;46.510;6.686;2023-01-28T11:51:50;96745.72;;;1.88;100.00
57644;BME280;43474;46.510;6.686;2023-01-28T11:54:40;96742.66;;;1.84;100.00
57644;BME280;43474;46.510;6.686;2023-01-28T11:57:13;96745.41;;;1.91;100.00
57644;BME280;43474;46.510;6.686;2023-01-28T12:02:42;96733.13;;;1.68;100.00
57644;BME280;43474;46.510;6.686;2023-01-28T12:13:34;96748.34;;;1.88;100.00
57644;BME280;43474;46.510;6.686;2023-01-28T12:19:09;96756.06;;;1.81;100.00
57644;BME280;43474;46.510;6.686;2023-01-28T12:32:27;96747.34;;;1.89;100.00
57644;BME280;43474;46.510;6.686;2023-01-28T12:38:07;96743.75;;;2.13;100.00
57644;BME280;43474;46.510;6.686;2023-01-28T12:41:02;96730.84;;;1.88;100.00
57644;BME280;43474;46.510;6.686;2023-01-28T12:46:26;96742.19;;;2.03;100.00
57644;BME280;43474;46.510;6.686;2023-01-28T12:54:28;96747.25;;;2.05;99.36
57644;BME280;43474;46.510;6.686;2023-01-28T12:56:55;96747.41;;;2.26;100.00
57644;BME280;43474;46.510;6.686;2023-01-28T12:59:37;96762.50;;;2.39;100.00
57644;BME280;43474;46.510;6.686;2023-01-28T13:05:01;96760.31;;;2.05;100.00
57644;BME280;43474;46.510;6.686;2023-01-28T13:07:36;96749.69;;;2.06;100.00
57644;BME280;43474;46.510;6.686;2023-01-28T13:10:12;96764.84;;;2.11;100.00
57644;BME280;43474;46.510;6.686;2023-01-28T13:12:42;96753.09;;;2.07;100.00
57644;BME280;43474;46.510;6.686;2023-01-28T13:15:14;96763.94;;;2.04;100.00
57644;BME280;43474;46.510;6.686;2023-01-28T13:17:59;96767.91;;;1.92;100.00
57644;BME280;43474;46.510;6.686;2023-01-28T13:20:51;96762.59;;;1.85;100.00
57644;BME280;43474;46.510;6.686;2023-01-28T13:25:55;96778.56;;;1.90;100.00
57644;BME280;43474;46.510;6.686;2023-01-28T13:28:30;96759.56;;;1.96;100.00
57644;BME280;43474;46.510;6.686;2023-01-28T13:31:09;96772.81;;;1.95;100.00
57644;BME280;43474;46.510;6.686;2023-01-28T13:34:02;96777.63;;;2.06;100.00
57644;BME280;43474;46.510;6.686;2023-01-28T13:41:48;96787.44;;;2.27;98.82
57644;BME280;43474;46.510;6.686;2023-01-28T13:44:30;96784.72;;;2.20;100.00
57644;BME280;43474;46.510;6.686;2023-01-28T13:49:40;96773.13;;;2.38;100.00
57644;BME280;43474;46.510;6.686;2023-01-28T13:54:38;96765.38;;;2.06;97.92
57644;BME280;43474;46.510;6.686;2023-01-28T14:14:10;96800.25;;;2.59;96.54
57644;BME280;43474;46.510;6.686;2023-01-28T14:16:51;96799.00;;;2.32;98.09
57644;BME280;43474;46.510;6.686;2023-01-28T14:19:25;96819.78;;;2.03;96.96
57644;BME280;43474;46.510;6.686;2023-01-28T14:21:52;96797.41;;;1.77;98.73
57644;BME280;43474;46.510;6.686;2023-01-28T14:24:19;96816.72;;;1.68;99.33
57644;BME280;43474;46.510;6.686;2023-01-28T14:27:02;96806.00;;;1.55;100.00
57644;BME280;43474;46.510;6.686;2023-01-28T14:32:11;96807.34;;;1.51;100.00
57644;BME280;43474;46.510;6.686;2023-01-28T14:34:37;96809.28;;;1.49;100.00
57644;BME280;43474;46.510;6.686;2023-01-28T14:37:14;96811.09;;;1.48;100.00
57644;BME280;43474;46.510;6.686;2023-01-28T14:39:45;96819.91;;;1.47;100.00
57644;BME280;43474;46.510;6.686;2023-01-28T14:42:36;96814.88;;;1.38;100.00
57644;BME280;43474;46.510;6.686;2023-01-28T14:50:40;96821.63;;;1.24;100.00
57644;BME280;43474;46.510;6.686;2023-01-28T14:55:56;96823.13;;;1.10;100.00
57644;BME280;43474;46.510;6.686;2023-01-28T14:58:30;96814.06;;;0.90;100.00
57644;BME280;43474;46.510;6.686;2023-01-28T15:00:59;96831.63;;;1.04;100.00
57644;BME280;43474;46.510;6.686;2023-01-28T15:03:26;96829.69;;;0.98;100.00
57644;BME280;43474;46.510;6.686;2023-01-28T15:06:04;96816.97;;;0.87;100.00
57644;BME280;43474;46.510;6.686;2023-01-28T15:08:30;96836.22;;;0.86;100.00
57644;BME280;43474;46.510;6.686;2023-01-28T15:10:57;96838.84;;;0.86;100.00
57644;BME280;43474;46.510;6.686;2023-01-28T15:13:27;96836.22;;;0.77;100.00
57644;BME280;43474;46.510;6.686;2023-01-28T15:15:54;96842.25;;;0.78;100.00
57644;BME280;43474;46.510;6.686;2023-01-28T15:18:31;96825.16;;;0.67;100.00